RJBE(METAR)
07/17 07:00
METAR RJBE 162200Z VRB02KT 9999 FEW009 SCT015 BKN030 24/23 Q1013 RMK
1ST009 3CU015 7CU030 A2992=
戻る
トップページへ戻る
IMOC Co,.Ltd.